Gilgit Weather



Gilgit's Current Weather

Temprature -6.385o broken clouds

broken clouds

Rain: 0 %

Min Temprature-6.385o
Max Temprature-6.385o
Humidity82
Wind Speed0.25 m/h
Sun Rise06:40:46
Sun Set17:51:57
Current Time: 23-Feb-2019 15:31:53
Lat/Lon: 35.92, 74.31




Gilgit's Geo Location




Gilgit's Weather Forecast

Time Overall Temp Min Temp Max Temp Humidity Wind Speed Rain
23-Feb-2019 (Sat)
17:00:00 light snow -7.940 -7.940 -7.251 85 0.06 m/h 0 %
20:00:00 light snow -9.290 -9.290 -8.766 88 0.07 m/h 0 %
23:00:00 light snow -9.610 -9.610 -9.260 88 0.02 m/h 0 %
24-Feb-2019 (Sun)
02:00:00 light snow -9.460 -9.460 -9.290 88 0.11 m/h 0 %
05:00:00 light snow -9.383 -9.383 -9.383 85 0.01 m/h 0 %
08:00:00 light snow -9.247 -9.247 -9.247 88 0.31 m/h 0 %
11:00:00 light snow -7.551 -7.551 -7.551 86 0.21 m/h 0 %
14:00:00 light snow -6.844 -6.844 -6.844 84 0.07 m/h 0 %
17:00:00 light snow -7.804 -7.804 -7.804 85 0.2 m/h 0 %
20:00:00 light snow -8.507 -8.507 -8.507 86 0.31 m/h 0 %
23:00:00 snow -8.739 -8.739 -8.739 88 0.31 m/h 0 %
25-Feb-2019 (Mon)
02:00:00 snow -9.020 -9.020 -9.020 86 0.62 m/h 0 %
05:00:00 snow -9.448 -9.448 -9.448 86 0.61 m/h 0 %
08:00:00 snow -9.855 -9.855 -9.855 85 0.47 m/h 0 %
11:00:00 light snow -8.503 -8.503 -8.503 80 0.11 m/h 0 %
14:00:00 light snow -7.802 -7.802 -7.802 82 0.22 m/h 0 %
17:00:00 light snow -8.688 -8.688 -8.688 81 0.16 m/h 0 %
20:00:00 clear sky -10.902 -10.902 -10.902 88 0.06 m/h 0 %
23:00:00 clear sky -11.858 -11.858 -11.858 87 0.06 m/h 0 %
26-Feb-2019 (Tue)
02:00:00 light snow -12.299 -12.299 -12.299 90 0.16 m/h 0 %
05:00:00 light snow -12.678 -12.678 -12.678 88 0.16 m/h 0 %
08:00:00 light snow -11.818 -11.818 -11.818 86 0.17 m/h 0 %
11:00:00 light snow -9.183 -9.183 -9.183 80 0.07 m/h 0 %
14:00:00 light snow -8.329 -8.329 -8.329 85 0.41 m/h 0 %
17:00:00 light snow -8.661 -8.661 -8.661 87 0.31 m/h 0 %
20:00:00 light snow -10.189 -10.189 -10.189 83 0.12 m/h 0 %
23:00:00 light snow -10.877 -10.877 -10.877 83 0.22 m/h 0 %
27-Feb-2019 (Wed)
02:00:00 light snow -11.019 -11.019 -11.019 84 0.31 m/h 0 %
05:00:00 light snow -11.081 -11.081 -11.081 85 0.5 m/h 0 %
08:00:00 light snow -10.835 -10.835 -10.835 83 0.37 m/h 0 %
11:00:00 light snow -9.280 -9.280 -9.280 84 0.61 m/h 0 %
14:00:00 light snow -8.339 -8.339 -8.339 85 0.45 m/h 0 %
17:00:00 clear sky -9.227 -9.227 -9.227 81 0.26 m/h 0 %
20:00:00 few clouds -11.858 -11.858 -11.858 87 0.22 m/h 0 %
23:00:00 clear sky -13.034 -13.034 -13.034 81 0.27 m/h 0 %
28-Feb-2019 (Thu)
02:00:00 clear sky -13.309 -13.309 -13.309 83 0.16 m/h 0 %
05:00:00 clear sky -13.337 -13.337 -13.337 83 0.21 m/h 0 %
08:00:00 light snow -13.110 -13.110 -13.110 82 0.41 m/h 0 %
11:00:00 light snow -10.028 -10.028 -10.028 79 0.16 m/h 0 %
14:00:00 light snow -8.621 -8.621 -8.621 81 0.17 m/h 0 %

Famous Cities (60)